sensor_id;sensor_type;location;lat;lon;timestamp;pressure;altitude;pressure_sealevel;temperature;humidity
22964;BME280;11648;49.306;6.934;2024-02-04T00:01:57;99545.03;;;14.68;69.55
22964;BME280;11648;49.306;6.934;2024-02-04T00:04:24;99546.75;;;14.71;69.36
22964;BME280;11648;49.306;6.934;2024-02-04T00:06:51;99549.84;;;14.22;70.52
22964;BME280;11648;49.306;6.934;2024-02-04T00:09:18;99551.25;;;14.64;69.48
22964;BME280;11648;49.306;6.934;2024-02-04T00:11:45;99543.44;;;14.48;70.21
22964;BME280;11648;49.306;6.934;2024-02-04T00:14:12;99548.91;;;14.25;70.64
22964;BME280;11648;49.306;6.934;2024-02-04T00:16:39;99542.63;;;14.43;70.32
22964;BME280;11648;49.306;6.934;2024-02-04T00:19:06;99548.84;;;14.32;70.98
22964;BME280;11648;49.306;6.934;2024-02-04T00:21:35;99547.94;;;14.40;70.20
22964;BME280;11648;49.306;6.934;2024-02-04T00:24:02;99544.63;;;14.10;71.48
22964;BME280;11648;49.306;6.934;2024-02-04T00:26:29;99534.69;;;14.38;70.29
22964;BME280;11648;49.306;6.934;2024-02-04T00:28:56;99537.31;;;14.41;70.00
22964;BME280;11648;49.306;6.934;2024-02-04T00:31:23;99524.81;;;14.57;69.79
22964;BME280;11648;49.306;6.934;2024-02-04T00:33:50;99534.69;;;14.33;70.36
22964;BME280;11648;49.306;6.934;2024-02-04T00:36:17;99534.41;;;14.68;69.66
22964;BME280;11648;49.306;6.934;2024-02-04T00:38:45;99544.13;;;14.66;69.33
22964;BME280;11648;49.306;6.934;2024-02-04T00:41:12;99553.59;;;14.93;68.62
22964;BME280;11648;49.306;6.934;2024-02-04T00:43:39;99547.81;;;14.53;69.77
22964;BME280;11648;49.306;6.934;2024-02-04T00:46:06;99546.91;;;14.56;69.73
22964;BME280;11648;49.306;6.934;2024-02-04T00:48:34;99536.00;;;14.86;68.97
22964;BME280;11648;49.306;6.934;2024-02-04T00:51:01;99532.97;;;14.36;70.21
22964;BME280;11648;49.306;6.934;2024-02-04T00:53:28;99538.16;;;14.46;69.89
22964;BME280;11648;49.306;6.934;2024-02-04T00:56:04;99553.16;;;14.50;69.66
22964;BME280;11648;49.306;6.934;2024-02-04T00:58:31;99554.63;;;14.77;68.85
22964;BME280;11648;49.306;6.934;2024-02-04T01:00:58;99556.50;;;14.66;69.46
22964;BME280;11648;49.306;6.934;2024-02-04T01:03:25;99552.81;;;14.82;68.82
22964;BME280;11648;49.306;6.934;2024-02-04T01:05:53;99553.97;;;14.57;69.39
22964;BME280;11648;49.306;6.934;2024-02-04T01:08:19;99548.78;;;14.43;69.94
22964;BME280;11648;49.306;6.934;2024-02-04T01:10:46;99555.84;;;14.44;70.50
22964;BME280;11648;49.306;6.934;2024-02-04T01:13:14;99553.81;;;14.72;69.25
22964;BME280;11648;49.306;6.934;2024-02-04T01:15:41;99550.59;;;14.40;70.23
22964;BME280;11648;49.306;6.934;2024-02-04T01:18:08;99550.81;;;14.11;71.31
22964;BME280;11648;49.306;6.934;2024-02-04T01:20:35;99546.28;;;14.25;70.88
22964;BME280;11648;49.306;6.934;2024-02-04T01:23:02;99553.66;;;13.76;72.39
22964;BME280;11648;49.306;6.934;2024-02-04T01:25:29;99549.66;;;14.47;70.27
22964;BME280;11648;49.306;6.934;2024-02-04T01:27:56;99558.66;;;14.21;70.76
22964;BME280;11648;49.306;6.934;2024-02-04T01:30:23;99557.69;;;14.31;70.80
22964;BME280;11648;49.306;6.934;2024-02-04T01:32:50;99560.00;;;14.72;69.54
22964;BME280;11648;49.306;6.934;2024-02-04T01:35:17;99552.88;;;14.77;69.20
22964;BME280;11648;49.306;6.934;2024-02-04T01:37:44;99561.84;;;14.64;70.00
22964;BME280;11648;49.306;6.934;2024-02-04T01:40:15;99556.63;;;14.58;69.77
22964;BME280;11648;49.306;6.934;2024-02-04T01:42:42;99563.44;;;14.82;68.85
22964;BME280;11648;49.306;6.934;2024-02-04T01:45:10;99561.66;;;14.82;68.99
22964;BME280;11648;49.306;6.934;2024-02-04T01:47:37;99556.31;;;14.84;68.85
22964;BME280;11648;49.306;6.934;2024-02-04T01:50:04;99561.59;;;14.89;68.85
22964;BME280;11648;49.306;6.934;2024-02-04T01:52:33;99553.84;;;14.67;69.25
22964;BME280;11648;49.306;6.934;2024-02-04T01:55:03;99558.38;;;14.56;69.81
22964;BME280;11648;49.306;6.934;2024-02-04T01:57:32;99559.03;;;14.78;69.20
22964;BME280;11648;49.306;6.934;2024-02-04T02:00:03;99555.56;;;14.73;69.27
22964;BME280;11648;49.306;6.934;2024-02-04T02:02:32;99553.31;;;14.27;70.78
22964;BME280;11648;49.306;6.934;2024-02-04T02:05:00;99541.69;;;14.47;70.34
22964;BME280;11648;49.306;6.934;2024-02-04T02:07:28;99544.19;;;14.63;69.70
22964;BME280;11648;49.306;6.934;2024-02-04T02:09:55;99535.50;;;14.46;70.38
22964;BME280;11648;49.306;6.934;2024-02-04T02:12:27;99541.00;;;14.19;71.03
22964;BME280;11648;49.306;6.934;2024-02-04T02:15:11;99535.59;;;14.40;70.63
22964;BME280;11648;49.306;6.934;2024-02-04T02:17:50;99551.38;;;14.48;70.44
22964;BME280;11648;49.306;6.934;2024-02-04T02:20:25;99555.06;;;14.27;71.07
22964;BME280;11648;49.306;6.934;2024-02-04T02:23:06;99551.47;;;14.39;70.39
22964;BME280;11648;49.306;6.934;2024-02-04T02:25:36;99554.75;;;14.66;69.75
22964;BME280;11648;49.306;6.934;2024-02-04T02:28:03;99566.50;;;14.33;70.96
22964;BME280;11648;49.306;6.934;2024-02-04T02:30:30;99575.06;;;14.67;69.69
22964;BME280;11648;49.306;6.934;2024-02-04T02:32:57;99569.81;;;14.60;69.39
22964;BME280;11648;49.306;6.934;2024-02-04T02:35:25;99568.94;;;14.59;70.05
22964;BME280;11648;49.306;6.934;2024-02-04T02:38:01;99571.41;;;14.77;69.57
22964;BME280;11648;49.306;6.934;2024-02-04T02:43:01;99562.16;;;14.25;70.89
22964;BME280;11648;49.306;6.934;2024-02-04T02:45:29;99559.34;;;14.49;70.71
22964;BME280;11648;49.306;6.934;2024-02-04T02:47:58;99544.31;;;14.50;70.59
22964;BME280;11648;49.306;6.934;2024-02-04T02:50:25;99540.84;;;14.42;70.47
22964;BME280;11648;49.306;6.934;2024-02-04T02:52:52;99536.25;;;14.59;70.01
22964;BME280;11648;49.306;6.934;2024-02-04T02:55:19;99517.72;;;14.60;70.07
22964;BME280;11648;49.306;6.934;2024-02-04T02:57:46;99516.00;;;14.52;70.36
22964;BME280;11648;49.306;6.934;2024-02-04T03:00:13;99507.91;;;14.67;69.86
22964;BME280;11648;49.306;6.934;2024-02-04T03:02:40;99507.63;;;14.93;68.90
22964;BME280;11648;49.306;6.934;2024-02-04T03:05:08;99499.94;;;14.71;69.24
22964;BME280;11648;49.306;6.934;2024-02-04T03:07:35;99498.47;;;15.18;68.05
22964;BME280;11648;49.306;6.934;2024-02-04T03:10:02;99503.56;;;14.61;69.62
22964;BME280;11648;49.306;6.934;2024-02-04T03:12:29;99494.19;;;15.06;68.22
22964;BME280;11648;49.306;6.934;2024-02-04T03:14:56;99494.75;;;14.59;69.57
22964;BME280;11648;49.306;6.934;2024-02-04T03:17:23;99504.38;;;14.66;69.35
22964;BME280;11648;49.306;6.934;2024-02-04T03:19:52;99500.81;;;14.70;69.40
22964;BME280;11648;49.306;6.934;2024-02-04T03:22:21;99504.22;;;14.83;68.95
22964;BME280;11648;49.306;6.934;2024-02-04T03:24:49;99507.41;;;14.27;70.72
22964;BME280;11648;49.306;6.934;2024-02-04T03:27:17;99502.72;;;14.58;69.58
22964;BME280;11648;49.306;6.934;2024-02-04T03:29:46;99492.97;;;14.60;69.62
22964;BME280;11648;49.306;6.934;2024-02-04T03:32:13;99486.97;;;14.41;70.56
22964;BME280;11648;49.306;6.934;2024-02-04T03:34:43;99491.22;;;14.62;69.47
22964;BME280;11648;49.306;6.934;2024-02-04T03:37:12;99502.50;;;14.79;69.22
22964;BME280;11648;49.306;6.934;2024-02-04T03:39:39;99498.19;;;14.67;69.36
22964;BME280;11648;49.306;6.934;2024-02-04T03:42:06;99504.97;;;14.93;68.85
22964;BME280;11648;49.306;6.934;2024-02-04T03:44:33;99506.19;;;14.63;69.42
22964;BME280;11648;49.306;6.934;2024-02-04T03:47:00;99514.19;;;14.60;69.80
22964;BME280;11648;49.306;6.934;2024-02-04T03:49:29;99508.75;;;14.70;69.52
22964;BME280;11648;49.306;6.934;2024-02-04T03:51:56;99511.97;;;15.00;68.58
22964;BME280;11648;49.306;6.934;2024-02-04T03:54:23;99497.81;;;15.01;68.20
22964;BME280;11648;49.306;6.934;2024-02-04T03:56:51;99508.22;;;15.17;67.93
22964;BME280;11648;49.306;6.934;2024-02-04T03:59:18;99503.03;;;15.08;67.92
22964;BME280;11648;49.306;6.934;2024-02-04T04:01:51;99505.03;;;14.90;68.30
22964;BME280;11648;49.306;6.934;2024-02-04T04:04:20;99495.22;;;14.98;68.71
22964;BME280;11648;49.306;6.934;2024-02-04T04:06:47;99499.28;;;15.26;67.68
22964;BME280;11648;49.306;6.934;2024-02-04T04:09:15;99505.56;;;15.16;67.48
22964;BME280;11648;49.306;6.934;2024-02-04T04:11:42;99501.13;;;15.19;67.79
22964;BME280;11648;49.306;6.934;2024-02-04T04:14:09;99511.28;;;14.82;68.75
22964;BME280;11648;49.306;6.934;2024-02-04T04:16:36;99511.13;;;14.98;68.51
22964;BME280;11648;49.306;6.934;2024-02-04T04:19:03;99507.50;;;15.03;67.89
22964;BME280;11648;49.306;6.934;2024-02-04T04:21:30;99509.09;;;15.19;67.78
22964;BME280;11648;49.306;6.934;2024-02-04T04:23:57;99521.94;;;14.76;69.18
22964;BME280;11648;49.306;6.934;2024-02-04T04:26:24;99519.97;;;14.95;68.61
22964;BME280;11648;49.306;6.934;2024-02-04T04:28:51;99513.84;;;14.90;68.92
22964;BME280;11648;49.306;6.934;2024-02-04T04:31:18;99512.22;;;14.78;69.01
22964;BME280;11648;49.306;6.934;2024-02-04T04:33:45;99511.66;;;14.45;70.56
22964;BME280;11648;49.306;6.934;2024-02-04T04:36:12;99516.09;;;14.47;70.79
22964;BME280;11648;49.306;6.934;2024-02-04T04:38:39;99517.59;;;14.69;69.74
22964;BME280;11648;49.306;6.934;2024-02-04T04:41:05;99513.81;;;14.93;69.05
22964;BME280;11648;49.306;6.934;2024-02-04T04:43:37;99517.88;;;14.42;70.48
22964;BME280;11648;49.306;6.934;2024-02-04T04:46:05;99516.59;;;14.82;69.43
22964;BME280;11648;49.306;6.934;2024-02-04T04:48:32;99518.75;;;14.46;70.68
22964;BME280;11648;49.306;6.934;2024-02-04T04:50:59;99518.66;;;14.55;70.10
22964;BME280;11648;49.306;6.934;2024-02-04T04:53:26;99523.84;;;14.65;70.23
22964;BME280;11648;49.306;6.934;2024-02-04T04:55:52;99515.66;;;14.87;69.25
22964;BME280;11648;49.306;6.934;2024-02-04T04:58:19;99528.34;;;14.57;70.83
22964;BME280;11648;49.306;6.934;2024-02-04T05:00:46;99517.00;;;14.43;70.93
22964;BME280;11648;49.306;6.934;2024-02-04T05:03:13;99508.25;;;14.37;71.26
22964;BME280;11648;49.306;6.934;2024-02-04T05:05:40;99518.56;;;14.62;70.48
22964;BME280;11648;49.306;6.934;2024-02-04T05:08:07;99512.66;;;14.33;71.22
22964;BME280;11648;49.306;6.934;2024-02-04T05:10:34;99501.91;;;14.48;70.84
22964;BME280;11648;49.306;6.934;2024-02-04T05:13:01;99509.88;;;14.48;70.63
22964;BME280;11648;49.306;6.934;2024-02-04T05:15:28;99501.81;;;14.59;70.30
22964;BME280;11648;49.306;6.934;2024-02-04T05:17:56;99509.94;;;14.42;70.87
22964;BME280;11648;49.306;6.934;2024-02-04T05:20:24;99516.38;;;14.11;71.66
22964;BME280;11648;49.306;6.934;2024-02-04T05:22:50;99506.31;;;14.54;70.66
22964;BME280;11648;49.306;6.934;2024-02-04T05:25:17;99512.59;;;14.42;70.47
22964;BME280;11648;49.306;6.934;2024-02-04T05:27:44;99499.53;;;14.18;70.83
22964;BME280;11648;49.306;6.934;2024-02-04T05:30:11;99501.19;;;14.34;70.84
22964;BME280;11648;49.306;6.934;2024-02-04T05:32:38;99504.34;;;14.71;69.97
22964;BME280;11648;49.306;6.934;2024-02-04T05:35:07;99510.69;;;14.58;70.29
22964;BME280;11648;49.306;6.934;2024-02-04T05:37:34;99517.41;;;14.88;69.02
22964;BME280;11648;49.306;6.934;2024-02-04T05:40:01;99518.59;;;14.61;69.87
22964;BME280;11648;49.306;6.934;2024-02-04T05:42:28;99520.03;;;14.89;69.08
22964;BME280;11648;49.306;6.934;2024-02-04T05:44:56;99520.41;;;14.57;69.86
22964;BME280;11648;49.306;6.934;2024-02-04T05:47:23;99508.22;;;14.40;70.29
22964;BME280;11648;49.306;6.934;2024-02-04T05:49:49;99498.91;;;14.80;69.62
22964;BME280;11648;49.306;6.934;2024-02-04T05:52:17;99497.63;;;14.38;70.76
22964;BME280;11648;49.306;6.934;2024-02-04T05:54:43;99503.94;;;14.22;71.18
22964;BME280;11648;49.306;6.934;2024-02-04T05:57:11;99509.22;;;14.22;71.36
22964;BME280;11648;49.306;6.934;2024-02-04T05:59:38;99501.88;;;14.54;70.55
22964;BME280;11648;49.306;6.934;2024-02-04T06:02:05;99509.13;;;14.31;71.24
22964;BME280;11648;49.306;6.934;2024-02-04T06:04:33;99514.34;;;14.43;70.80
22964;BME280;11648;49.306;6.934;2024-02-04T06:07:01;99514.09;;;14.67;69.98
22964;BME280;11648;49.306;6.934;2024-02-04T06:09:28;99518.28;;;14.88;69.30
22964;BME280;11648;49.306;6.934;2024-02-04T06:11:55;99515.31;;;14.33;70.52
22964;BME280;11648;49.306;6.934;2024-02-04T06:14:22;99516.09;;;14.47;70.53
22964;BME280;11648;49.306;6.934;2024-02-04T06:16:49;99524.91;;;14.46;70.43
22964;BME280;11648;49.306;6.934;2024-02-04T06:19:16;99518.31;;;14.83;69.17
22964;BME280;11648;49.306;6.934;2024-02-04T06:21:43;99521.38;;;14.46;70.32
22964;BME280;11648;49.306;6.934;2024-02-04T06:24:10;99518.81;;;14.40;70.61
22964;BME280;11648;49.306;6.934;2024-02-04T06:26:39;99509.28;;;15.03;68.67
22964;BME280;11648;49.306;6.934;2024-02-04T06:29:07;99533.66;;;14.57;69.55
22964;BME280;11648;49.306;6.934;2024-02-04T06:31:34;99519.63;;;14.46;70.09
22964;BME280;11648;49.306;6.934;2024-02-04T06:34:01;99526.50;;;14.64;69.60
22964;BME280;11648;49.306;6.934;2024-02-04T06:36:28;99522.91;;;14.72;68.96
22964;BME280;11648;49.306;6.934;2024-02-04T06:38:55;99508.09;;;14.49;70.04
22964;BME280;11648;49.306;6.934;2024-02-04T06:41:22;99515.78;;;14.74;69.03
22964;BME280;11648;49.306;6.934;2024-02-04T06:43:49;99509.69;;;14.68;69.25
22964;BME280;11648;49.306;6.934;2024-02-04T06:46:26;99498.00;;;14.86;68.58
22964;BME280;11648;49.306;6.934;2024-02-04T06:48:53;99495.47;;;14.73;68.96
22964;BME280;11648;49.306;6.934;2024-02-04T06:51:21;99499.16;;;14.60;69.51
22964;BME280;11648;49.306;6.934;2024-02-04T06:53:48;99508.25;;;14.30;70.59
22964;BME280;11648;49.306;6.934;2024-02-04T06:56:15;99499.09;;;14.66;69.28
22964;BME280;11648;49.306;6.934;2024-02-04T06:58:43;99502.63;;;14.67;69.47
22964;BME280;11648;49.306;6.934;2024-02-04T07:01:11;99505.25;;;14.68;69.51
22964;BME280;11648;49.306;6.934;2024-02-04T07:03:38;99507.09;;;14.60;69.33
22964;BME280;11648;49.306;6.934;2024-02-04T07:06:06;99514.94;;;14.71;69.33
22964;BME280;11648;49.306;6.934;2024-02-04T07:08:33;99519.09;;;14.95;68.51
22964;BME280;11648;49.306;6.934;2024-02-04T07:11:00;99518.03;;;15.09;68.50
22964;BME280;11648;49.306;6.934;2024-02-04T07:13:27;99514.09;;;14.67;69.77
22964;BME280;11648;49.306;6.934;2024-02-04T07:15:54;99515.78;;;14.74;69.26
22964;BME280;11648;49.306;6.934;2024-02-04T07:18:21;99512.38;;;14.65;69.37
22964;BME280;11648;49.306;6.934;2024-02-04T07:20:49;99519.38;;;14.70;69.77
22964;BME280;11648;49.306;6.934;2024-02-04T07:23:16;99523.25;;;14.30;71.26
22964;BME280;11648;49.306;6.934;2024-02-04T07:25:43;99517.66;;;14.65;70.04
22964;BME280;11648;49.306;6.934;2024-02-04T07:28:10;99524.81;;;14.55;70.03
22964;BME280;11648;49.306;6.934;2024-02-04T07:30:37;99510.38;;;14.83;69.37
22964;BME280;11648;49.306;6.934;2024-02-04T07:33:04;99509.44;;;14.89;69.03
22964;BME280;11648;49.306;6.934;2024-02-04T07:35:31;99510.00;;;14.34;70.48
22964;BME280;11648;49.306;6.934;2024-02-04T07:37:58;99506.88;;;14.81;69.10
22964;BME280;11648;49.306;6.934;2024-02-04T07:40:26;99512.25;;;14.75;69.67
22964;BME280;11648;49.306;6.934;2024-02-04T07:42:54;99503.75;;;14.43;70.34
22964;BME280;11648;49.306;6.934;2024-02-04T07:45:21;99512.53;;;14.48;70.21
22964;BME280;11648;49.306;6.934;2024-02-04T07:47:48;99509.22;;;14.19;70.83
22964;BME280;11648;49.306;6.934;2024-02-04T07:50:15;99525.91;;;14.36;70.30
22964;BME280;11648;49.306;6.934;2024-02-04T07:52:43;99528.56;;;14.33;70.76
22964;BME280;11648;49.306;6.934;2024-02-04T07:55:11;99537.47;;;14.21;70.87
22964;BME280;11648;49.306;6.934;2024-02-04T07:57:38;99536.59;;;14.19;71.49
22964;BME280;11648;49.306;6.934;2024-02-04T08:00:06;99537.16;;;14.61;70.31
22964;BME280;11648;49.306;6.934;2024-02-04T08:02:39;99537.03;;;14.71;69.93
22964;BME280;11648;49.306;6.934;2024-02-04T08:05:06;99538.88;;;14.65;69.82
22964;BME280;11648;49.306;6.934;2024-02-04T08:07:33;99526.97;;;14.09;71.57
22964;BME280;11648;49.306;6.934;2024-02-04T08:10:00;99519.91;;;14.11;71.52
22964;BME280;11648;49.306;6.934;2024-02-04T08:12:27;99511.16;;;14.00;71.58
22964;BME280;11648;49.306;6.934;2024-02-04T08:14:54;99506.63;;;14.14;71.51
22964;BME280;11648;49.306;6.934;2024-02-04T08:17:21;99494.19;;;14.24;71.48
22964;BME280;11648;49.306;6.934;2024-02-04T08:19:48;99496.75;;;14.36;70.69
22964;BME280;11648;49.306;6.934;2024-02-04T08:22:15;99494.47;;;13.94;72.18
22964;BME280;11648;49.306;6.934;2024-02-04T08:24:44;99497.56;;;14.43;70.61
22964;BME280;11648;49.306;6.934;2024-02-04T08:27:12;99506.53;;;14.23;71.08
22964;BME280;11648;49.306;6.934;2024-02-04T08:29:39;99511.84;;;14.25;71.11
22964;BME280;11648;49.306;6.934;2024-02-04T08:32:06;99521.59;;;14.20;71.85
22964;BME280;11648;49.306;6.934;2024-02-04T08:34:33;99514.69;;;14.01;72.05
22964;BME280;11648;49.306;6.934;2024-02-04T08:37:00;99508.59;;;13.88;71.93
22964;BME280;11648;49.306;6.934;2024-02-04T08:39:27;99497.66;;;14.32;70.73
22964;BME280;11648;49.306;6.934;2024-02-04T08:41:54;99512.94;;;13.98;72.01
22964;BME280;11648;49.306;6.934;2024-02-04T08:44:21;99504.22;;;13.84;72.84
22964;BME280;11648;49.306;6.934;2024-02-04T08:47:01;99509.50;;;13.89;72.21
22964;BME280;11648;49.306;6.934;2024-02-04T08:49:29;99512.69;;;14.27;70.85
22964;BME280;11648;49.306;6.934;2024-02-04T08:51:56;99512.13;;;13.90;72.30
22964;BME280;11648;49.306;6.934;2024-02-04T08:54:23;99510.16;;;14.13;70.94
22964;BME280;11648;49.306;6.934;2024-02-04T08:56:50;99522.63;;;13.98;71.55
22964;BME280;11648;49.306;6.934;2024-02-04T08:59:17;99526.78;;;14.30;70.91
22964;BME280;11648;49.306;6.934;2024-02-04T09:01:44;99525.00;;;14.40;70.68
22964;BME280;11648;49.306;6.934;2024-02-04T09:04:11;99516.44;;;14.02;71.76
22964;BME280;11648;49.306;6.934;2024-02-04T09:06:38;99526.13;;;14.06;71.40
22964;BME280;11648;49.306;6.934;2024-02-04T09:09:05;99521.59;;;14.21;71.03
22964;BME280;11648;49.306;6.934;2024-02-04T09:11:32;99515.91;;;14.65;69.92
22964;BME280;11648;49.306;6.934;2024-02-04T09:13:59;99514.91;;;14.74;68.98
22964;BME280;11648;49.306;6.934;2024-02-04T09:16:26;99516.91;;;14.52;70.00
22964;BME280;11648;49.306;6.934;2024-02-04T09:18:53;99508.06;;;14.53;69.79
22964;BME280;11648;49.306;6.934;2024-02-04T09:21:20;99513.38;;;14.55;69.92
22964;BME280;11648;49.306;6.934;2024-02-04T09:23:47;99506.22;;;14.60;69.79
22964;BME280;11648;49.306;6.934;2024-02-04T09:26:14;99506.16;;;14.66;69.56
22964;BME280;11648;49.306;6.934;2024-02-04T09:28:45;99516.09;;;14.47;70.21
22964;BME280;11648;49.306;6.934;2024-02-04T09:31:12;99521.81;;;14.89;68.99
22964;BME280;11648;49.306;6.934;2024-02-04T09:33:39;99519.13;;;14.92;69.03
22964;BME280;11648;49.306;6.934;2024-02-04T09:36:07;99517.72;;;14.62;70.17
22964;BME280;11648;49.306;6.934;2024-02-04T09:38:35;99525.16;;;15.06;68.87
22964;BME280;11648;49.306;6.934;2024-02-04T09:41:02;99507.72;;;14.87;69.41
22964;BME280;11648;49.306;6.934;2024-02-04T09:43:32;99500.94;;;14.60;69.96
22964;BME280;11648;49.306;6.934;2024-02-04T09:46:00;99510.59;;;14.62;70.12
22964;BME280;11648;49.306;6.934;2024-02-04T09:48:32;99512.66;;;14.33;71.25
22964;BME280;11648;49.306;6.934;2024-02-04T09:51:00;99495.50;;;14.72;69.88
22964;BME280;11648;49.306;6.934;2024-02-04T09:53:32;99497.50;;;14.50;70.88
22964;BME280;11648;49.306;6.934;2024-02-04T09:56:03;99498.28;;;14.60;70.73
22964;BME280;11648;49.306;6.934;2024-02-04T09:58:33;99498.63;;;14.19;71.21
22964;BME280;11648;49.306;6.934;2024-02-04T10:01:01;99490.25;;;14.69;69.61
22964;BME280;11648;49.306;6.934;2024-02-04T10:03:29;99507.91;;;14.68;69.96
22964;BME280;11648;49.306;6.934;2024-02-04T10:05:56;99511.50;;;14.64;69.84
22964;BME280;11648;49.306;6.934;2024-02-04T10:08:24;99520.50;;;14.47;70.73
22964;BME280;11648;49.306;6.934;2024-02-04T10:10:52;99523.19;;;14.44;70.65
22964;BME280;11648;49.306;6.934;2024-02-04T10:13:21;99526.31;;;14.82;69.86
22964;BME280;11648;49.306;6.934;2024-02-04T10:15:49;99532.75;;;14.57;69.96
22964;BME280;11648;49.306;6.934;2024-02-04T10:18:16;99523.78;;;14.70;69.67
22964;BME280;11648;49.306;6.934;2024-02-04T10:20:44;99529.41;;;14.33;70.66
22964;BME280;11648;49.306;6.934;2024-02-04T10:23:10;99520.00;;;14.92;69.49
22964;BME280;11648;49.306;6.934;2024-02-04T10:25:37;99528.34;;;14.56;70.24
22964;BME280;11648;49.306;6.934;2024-02-04T10:28:04;99534.06;;;14.99;69.37
22964;BME280;11648;49.306;6.934;2024-02-04T10:30:31;99530.53;;;14.98;69.06
22964;BME280;11648;49.306;6.934;2024-02-04T10:32:59;99530.78;;;14.77;69.32
22964;BME280;11648;49.306;6.934;2024-02-04T10:35:26;99517.84;;;15.24;68.10
22964;BME280;11648;49.306;6.934;2024-02-04T10:37:53;99538.50;;;14.98;69.11
22964;BME280;11648;49.306;6.934;2024-02-04T10:40:20;99523.03;;;14.57;70.37
22964;BME280;11648;49.306;6.934;2024-02-04T10:42:48;99524.44;;;14.92;69.21
22964;BME280;11648;49.306;6.934;2024-02-04T10:45:17;99529.00;;;15.52;67.51
22964;BME280;11648;49.306;6.934;2024-02-04T10:47:52;99531.91;;;15.97;65.68
22964;BME280;11648;49.306;6.934;2024-02-04T10:50:24;99529.13;;;16.03;65.54
22964;BME280;11648;49.306;6.934;2024-02-04T10:52:51;99526.69;;;15.91;65.42
22964;BME280;11648;49.306;6.934;2024-02-04T10:55:22;99512.41;;;15.98;65.44
22964;BME280;11648;49.306;6.934;2024-02-04T10:57:53;99526.19;;;16.21;65.02
22964;BME280;11648;49.306;6.934;2024-02-04T11:00:20;99513.94;;;16.64;63.57
22964;BME280;11648;49.306;6.934;2024-02-04T11:02:49;99514.00;;;16.60;63.71
22964;BME280;11648;49.306;6.934;2024-02-04T11:05:18;99497.56;;;16.37;64.18
22964;BME280;11648;49.306;6.934;2024-02-04T11:07:45;99503.34;;;16.09;64.84
22964;BME280;11648;49.306;6.934;2024-02-04T11:10:13;99505.78;;;16.23;64.86
22964;BME280;11648;49.306;6.934;2024-02-04T11:12:41;99493.28;;;16.29;64.45
22964;BME280;11648;49.306;6.934;2024-02-04T11:15:10;99497.41;;;15.94;65.80
22964;BME280;11648;49.306;6.934;2024-02-04T11:17:57;99496.38;;;15.44;67.55
22964;BME280;11648;49.306;6.934;2024-02-04T11:26:02;99485.75;;;15.43;68.06
22964;BME280;11648;49.306;6.934;2024-02-04T11:28:31;99468.03;;;15.46;67.97
22964;BME280;11648;49.306;6.934;2024-02-04T11:30:58;99460.91;;;15.48;68.20
22964;BME280;11648;49.306;6.934;2024-02-04T11:33:27;99460.06;;;15.45;68.10
22964;BME280;11648;49.306;6.934;2024-02-04T11:35:59;99475.75;;;15.66;67.62
22964;BME280;11648;49.306;6.934;2024-02-04T11:38:35;99465.34;;;15.48;67.96
22964;BME280;11648;49.306;6.934;2024-02-04T11:41:03;99470.28;;;15.73;67.33
22964;BME280;11648;49.306;6.934;2024-02-04T11:43:33;99460.81;;;15.56;67.75
22964;BME280;11648;49.306;6.934;2024-02-04T11:46:03;99468.31;;;15.23;68.68
22964;BME280;11648;49.306;6.934;2024-02-04T11:48:33;99463.38;;;15.63;67.78
22964;BME280;11648;49.306;6.934;2024-02-04T11:51:00;99460.34;;;15.88;66.91
22964;BME280;11648;49.306;6.934;2024-02-04T11:53:29;99455.50;;;15.59;67.35
22964;BME280;11648;49.306;6.934;2024-02-04T11:56:00;99453.22;;;15.90;66.60
22964;BME280;11648;49.306;6.934;2024-02-04T11:58:28;99461.75;;;15.53;67.27
22964;BME280;11648;49.306;6.934;2024-02-04T12:00:56;99467.34;;;15.32;68.00
22964;BME280;11648;49.306;6.934;2024-02-04T12:03:33;99462.53;;;16.13;65.80
22964;BME280;11648;49.306;6.934;2024-02-04T12:06:02;99461.34;;;16.31;64.91
22964;BME280;11648;49.306;6.934;2024-02-04T12:08:32;99451.41;;;15.92;65.79
22964;BME280;11648;49.306;6.934;2024-02-04T12:11:01;99449.03;;;15.76;66.56
22964;BME280;11648;49.306;6.934;2024-02-04T12:13:28;99449.56;;;15.95;65.82
22964;BME280;11648;49.306;6.934;2024-02-04T12:15:55;99446.13;;;15.90;65.87
22964;BME280;11648;49.306;6.934;2024-02-04T12:18:22;99457.34;;;15.52;67.00
22964;BME280;11648;49.306;6.934;2024-02-04T12:20:49;99456.03;;;15.79;65.93
22964;BME280;11648;49.306;6.934;2024-02-04T12:23:18;99448.75;;;15.92;65.71
22964;BME280;11648;49.306;6.934;2024-02-04T12:25:45;99448.50;;;16.07;65.22
22964;BME280;11648;49.306;6.934;2024-02-04T12:28:13;99456.34;;;16.13;65.06
22964;BME280;11648;49.306;6.934;2024-02-04T12:30:41;99444.63;;;16.26;64.87
22964;BME280;11648;49.306;6.934;2024-02-04T12:33:08;99442.47;;;15.97;65.45
22964;BME280;11648;49.306;6.934;2024-02-04T12:35:36;99443.78;;;15.70;66.40
22964;BME280;11648;49.306;6.934;2024-02-04T12:38:03;99434.34;;;16.06;65.11
22964;BME280;11648;49.306;6.934;2024-02-04T12:40:30;99430.84;;;16.03;65.18
22964;BME280;11648;49.306;6.934;2024-02-04T12:42:59;99432.84;;;15.90;65.55
22964;BME280;11648;49.306;6.934;2024-02-04T12:45:32;99432.09;;;15.80;65.75
22964;BME280;11648;49.306;6.934;2024-02-04T12:48:00;99428.47;;;15.88;65.55
22964;BME280;11648;49.306;6.934;2024-02-04T12:50:28;99426.34;;;16.08;64.70
22964;BME280;11648;49.306;6.934;2024-02-04T12:53:09;99425.72;;;15.94;65.13
22964;BME280;11648;49.306;6.934;2024-02-04T12:55:40;99418.19;;;16.17;64.53
22964;BME280;11648;49.306;6.934;2024-02-04T12:58:10;99407.81;;;16.51;63.45
22964;BME280;11648;49.306;6.934;2024-02-04T13:00:44;99405.72;;;16.69;62.98
22964;BME280;11648;49.306;6.934;2024-02-04T13:03:15;99400.94;;;16.41;63.27
22964;BME280;11648;49.306;6.934;2024-02-04T13:05:42;99410.22;;;16.17;64.42
22964;BME280;11648;49.306;6.934;2024-02-04T13:08:09;99399.91;;;16.00;64.57
22964;BME280;11648;49.306;6.934;2024-02-04T13:10:36;99393.47;;;16.15;64.34
22964;BME280;11648;49.306;6.934;2024-02-04T13:13:06;99403.97;;;15.70;65.66